UIUU Airport Information

Runway Information
Runway 08 Length 9780 ft width 150 ft
Elevation 1690 ft Threshold 0 ft Heading 78
Runway 26 Length 9780 ft Width 150 ft
Elevation 1657 ft Threshold 0 ft Heading 258
Runway 08L Length 6700 ft width 340 ft
Elevation 0 ft Threshold 0 ft Heading 78
Runway 26R Length 6700 ft Width 340 ft
Elevation 0 ft Threshold 0 ft Heading 258
Runway 14 Length 4630 ft width 315 ft
Elevation 0 ft Threshold 0 ft Heading 135
Runway 32 Length 4630 ft Width 315 ft
Elevation 0 ft Threshold 0 ft Heading 315
Airport Frequencies
Type APP Name ULAN UDE A Frequency 129.3 MHZ
Type ATIS Name ATIS Frequency 126.6 MHZ
Type TWR Name ULAN UDE T Frequency 118.1 MHZ
Airport Navaids
Type NDB Name Ulan-Ude Frequency 349 KHZ
Airport Weather Information & NOTAM
ADDS - METARS form results

(0618 UTC 29 November 2021)
Data provider http://aviationweather.gov/metar/data/
 
METAR text: UIUU 290600Z 26002MPS 5000 -SHSN OVC030CB M07/M09 Q1026 R26/490537 NOSIG RMK MT OBSC QFE725/0967
Conditions at: UIUU (ULAN-UDE/MUHINO , RU) observed 0600 UTC 29 November 2021
Temperature: -7.0°C (19°F)
Dewpoint: -9.0°C (16°F) [RH = 86%]
Pressure (altimeter): 30.30 inches Hg (1026.0 mb)
Winds: from the W (260 degrees) at 5 MPH (4 knots; 2.1 m/s)
Visibility: 3 miles ( 5 km)
Ceiling: 3000 feet AGL
Clouds: overcast cloud deck at 3000 feet AGL
Weather: -SHSN  (light snow showers)

METAR text: UIUU 290530Z VRB01MPS 5000 -SHSN OVC027CB M07/M09 Q1027 RESHSN R26/490537 NOSIG RMK MT OBSC QFE725/0967
Conditions at: UIUU (ULAN-UDE/MUHINO , RU) observed 0530 UTC 29 November 2021
Temperature: -7.0°C (19°F)
Dewpoint: -9.0°C (16°F) [RH = 86%]
Pressure (altimeter): 30.32 inches Hg (1027.0 mb)
Winds: variable direction winds at 2 MPH (2 knots; 1.0 m/s)
Visibility: 3 miles ( 5 km)
Ceiling: 2700 feet AGL
Clouds: overcast cloud deck at 2700 feet AGL
Weather: -SHSN  (light snow showers)

Forecast for: UIUU (ULAN-UDE/MUHINO , RU)
Text: TAF UIUU 290500Z 2906/3006 26005MPS 5000 -SHSN BKN020CB
Forecast period: 0600 UTC 29 November 2021 to 0600 UTC 30 November 2021
Forecast type: FROM: standard forecast or significant change
Winds: from the W (260 degrees) at 12 MPH (10 knots; 5.1 m/s)
Visibility: 3 miles (5 km)
Ceiling: 2000 feet AGL
Clouds: broken clouds at 2000 feet AGL
Weather: -SHSN  (light snow showers)
Text: TEMPO 2906/3006 32003G08MPS 1500 SHSN OVC011CB
Forecast period: 0600 UTC 29 November 2021 to 0600 UTC 30 November 2021
Forecast type: TEMPORARY: The following changes expected for less than half the time period
Winds: from the NW (320 degrees) at 7 MPH (6 knots; 3.1 m/s)
gusting to 18 MPH (16 knots; 8.2 m/s)
Visibility: 0.93 miles (1.50 km)
Ceiling: 1100 feet AGL
Clouds: overcast cloud deck at 1100 feet AGL
Weather: SHSN  (snow showers)